sensor_id;sensor_type;location;lat;lon;timestamp;pressure;altitude;pressure_sealevel;temperature;humidity
72570;BME280;60594;50.204;8.844;2023-11-21T00:01:11;99320.66;;;8.59;100.00
72570;BME280;60594;50.204;8.844;2023-11-21T00:03:40;99319.34;;;8.74;100.00
72570;BME280;60594;50.204;8.844;2023-11-21T00:06:07;99325.66;;;8.83;100.00
72570;BME280;60594;50.204;8.844;2023-11-21T00:08:35;99319.78;;;8.79;100.00
72570;BME280;60594;50.204;8.844;2023-11-21T00:11:02;99316.03;;;8.91;100.00
72570;BME280;60594;50.204;8.844;2023-11-21T00:13:32;99315.38;;;8.99;100.00
72570;BME280;60594;50.204;8.844;2023-11-21T00:15:58;99323.91;;;9.02;100.00
72570;BME280;60594;50.204;8.844;2023-11-21T00:18:25;99316.94;;;9.01;100.00
72570;BME280;60594;50.204;8.844;2023-11-21T00:20:51;99319.78;;;9.19;100.00
72570;BME280;60594;50.204;8.844;2023-11-21T00:23:18;99313.31;;;9.12;100.00
72570;BME280;60594;50.204;8.844;2023-11-21T00:25:44;99310.66;;;9.12;100.00
72570;BME280;60594;50.204;8.844;2023-11-21T00:28:10;99308.59;;;9.15;100.00
72570;BME280;60594;50.204;8.844;2023-11-21T00:30:37;99314.59;;;9.17;100.00
72570;BME280;60594;50.204;8.844;2023-11-21T00:33:04;99311.06;;;9.07;100.00
72570;BME280;60594;50.204;8.844;2023-11-21T00:35:30;99307.13;;;9.02;100.00
72570;BME280;60594;50.204;8.844;2023-11-21T00:37:57;99324.06;;;9.10;100.00
72570;BME280;60594;50.204;8.844;2023-11-21T00:40:24;99325.94;;;9.19;100.00
72570;BME280;60594;50.204;8.844;2023-11-21T00:42:51;99326.06;;;9.18;100.00
72570;BME280;60594;50.204;8.844;2023-11-21T00:45:18;99323.03;;;9.22;100.00
72570;BME280;60594;50.204;8.844;2023-11-21T00:47:45;99315.38;;;8.99;100.00
72570;BME280;60594;50.204;8.844;2023-11-21T00:50:11;99321.22;;;8.93;100.00
72570;BME280;60594;50.204;8.844;2023-11-21T00:52:38;99318.72;;;9.01;100.00
72570;BME280;60594;50.204;8.844;2023-11-21T00:55:05;99323.13;;;9.11;100.00
72570;BME280;60594;50.204;8.844;2023-11-21T00:57:33;99324.53;;;9.15;100.00
72570;BME280;60594;50.204;8.844;2023-11-21T01:00:00;99324.44;;;9.26;100.00
72570;BME280;60594;50.204;8.844;2023-11-21T01:02:27;99328.91;;;9.35;100.00
72570;BME280;60594;50.204;8.844;2023-11-21T01:04:53;99326.53;;;9.32;100.00
72570;BME280;60594;50.204;8.844;2023-11-21T01:07:20;99325.56;;;9.33;100.00
72570;BME280;60594;50.204;8.844;2023-11-21T01:09:46;99336.63;;;9.38;100.00
72570;BME280;60594;50.204;8.844;2023-11-21T01:12:13;99332.28;;;9.37;100.00
72570;BME280;60594;50.204;8.844;2023-11-21T01:14:40;99338.28;;;9.30;100.00
72570;BME280;60594;50.204;8.844;2023-11-21T01:17:06;99344.59;;;9.38;100.00
72570;BME280;60594;50.204;8.844;2023-11-21T01:19:33;99341.22;;;9.36;100.00
72570;BME280;60594;50.204;8.844;2023-11-21T01:21:59;99347.25;;;9.38;100.00
72570;BME280;60594;50.204;8.844;2023-11-21T01:24:26;99349.34;;;9.35;100.00
72570;BME280;60594;50.204;8.844;2023-11-21T01:26:52;99354.94;;;9.32;100.00
72570;BME280;60594;50.204;8.844;2023-11-21T01:29:19;99350.59;;;9.31;100.00
72570;BME280;60594;50.204;8.844;2023-11-21T01:31:46;99347.25;;;9.29;100.00
72570;BME280;60594;50.204;8.844;2023-11-21T01:34:13;99346.53;;;9.36;100.00
72570;BME280;60594;50.204;8.844;2023-11-21T01:36:40;99351.47;;;9.41;100.00
72570;BME280;60594;50.204;8.844;2023-11-21T01:39:07;99356.91;;;9.39;100.00
72570;BME280;60594;50.204;8.844;2023-11-21T01:41:34;99359.00;;;9.36;100.00
72570;BME280;60594;50.204;8.844;2023-11-21T01:44:02;99359.16;;;9.34;100.00
72570;BME280;60594;50.204;8.844;2023-11-21T01:46:29;99343.72;;;9.28;100.00
72570;BME280;60594;50.204;8.844;2023-11-21T01:48:56;99341.34;;;9.25;100.00
72570;BME280;60594;50.204;8.844;2023-11-21T01:51:23;99343.69;;;9.19;100.00
72570;BME280;60594;50.204;8.844;2023-11-21T01:53:50;99346.34;;;9.19;100.00
72570;BME280;60594;50.204;8.844;2023-11-21T01:56:16;99346.63;;;9.16;100.00
72570;BME280;60594;50.204;8.844;2023-11-21T01:58:43;99348.84;;;9.11;100.00
72570;BME280;60594;50.204;8.844;2023-11-21T02:01:10;99349.53;;;9.13;100.00
72570;BME280;60594;50.204;8.844;2023-11-21T02:03:36;99345.81;;;9.15;100.00
72570;BME280;60594;50.204;8.844;2023-11-21T02:06:03;99349.41;;;9.14;100.00
72570;BME280;60594;50.204;8.844;2023-11-21T02:08:30;99356.69;;;9.12;100.00
72570;BME280;60594;50.204;8.844;2023-11-21T02:10:57;99359.22;;;9.14;100.00
72570;BME280;60594;50.204;8.844;2023-11-21T02:13:24;99365.34;;;9.14;100.00
72570;BME280;60594;50.204;8.844;2023-11-21T02:15:50;99366.59;;;9.10;100.00
72570;BME280;60594;50.204;8.844;2023-11-21T02:18:19;99354.56;;;9.06;100.00
72570;BME280;60594;50.204;8.844;2023-11-21T02:20:46;99374.31;;;9.13;100.00
72570;BME280;60594;50.204;8.844;2023-11-21T02:23:14;99371.66;;;9.13;100.00
72570;BME280;60594;50.204;8.844;2023-11-21T02:25:40;99373.25;;;8.95;100.00
72570;BME280;60594;50.204;8.844;2023-11-21T02:28:09;99376.63;;;8.97;100.00
72570;BME280;60594;50.204;8.844;2023-11-21T02:30:36;99375.41;;;9.01;100.00
72570;BME280;60594;50.204;8.844;2023-11-21T02:33:03;99368.97;;;9.04;100.00
72570;BME280;60594;50.204;8.844;2023-11-21T02:35:31;99364.94;;;9.09;100.00
72570;BME280;60594;50.204;8.844;2023-11-21T02:37:58;99374.44;;;9.12;100.00
72570;BME280;60594;50.204;8.844;2023-11-21T02:40:25;99374.91;;;9.17;100.00
72570;BME280;60594;50.204;8.844;2023-11-21T02:42:53;99373.19;;;9.16;100.00
72570;BME280;60594;50.204;8.844;2023-11-21T02:45:21;99370.53;;;9.16;100.00
72570;BME280;60594;50.204;8.844;2023-11-21T02:47:48;99360.91;;;9.15;100.00
72570;BME280;60594;50.204;8.844;2023-11-21T02:50:15;99365.34;;;9.14;100.00
72570;BME280;60594;50.204;8.844;2023-11-21T02:52:42;99360.03;;;9.14;100.00
72570;BME280;60594;50.204;8.844;2023-11-21T02:55:08;99355.72;;;9.13;100.00
72570;BME280;60594;50.204;8.844;2023-11-21T02:57:35;99359.78;;;9.17;100.00
72570;BME280;60594;50.204;8.844;2023-11-21T03:00:01;99361.88;;;9.14;100.00
72570;BME280;60594;50.204;8.844;2023-11-21T03:02:31;99346.19;;;9.11;100.00
72570;BME280;60594;50.204;8.844;2023-11-21T03:04:57;99366.59;;;9.10;100.00
72570;BME280;60594;50.204;8.844;2023-11-21T03:07:24;99366.03;;;9.07;100.00
72570;BME280;60594;50.204;8.844;2023-11-21T03:09:51;99373.16;;;9.06;100.00
72570;BME280;60594;50.204;8.844;2023-11-21T03:12:18;99368.84;;;9.05;100.00
72570;BME280;60594;50.204;8.844;2023-11-21T03:14:45;99366.88;;;9.07;100.00
72570;BME280;60594;50.204;8.844;2023-11-21T03:17:12;99364.81;;;9.11;100.00
72570;BME280;60594;50.204;8.844;2023-11-21T03:19:38;99367.19;;;9.14;100.00
72570;BME280;60594;50.204;8.844;2023-11-21T03:22:05;99370.53;;;9.16;100.00
72570;BME280;60594;50.204;8.844;2023-11-21T03:24:31;99375.31;;;9.12;100.00
72570;BME280;60594;50.204;8.844;2023-11-21T03:26:58;99374.44;;;9.12;100.00
72570;BME280;60594;50.204;8.844;2023-11-21T03:29:25;99378.78;;;9.13;100.00
72570;BME280;60594;50.204;8.844;2023-11-21T03:31:52;99379.91;;;9.10;100.00
72570;BME280;60594;50.204;8.844;2023-11-21T03:34:27;99385.09;;;9.12;100.00
72570;BME280;60594;50.204;8.844;2023-11-21T03:36:55;99382.03;;;9.16;100.00
72570;BME280;60594;50.204;8.844;2023-11-21T03:39:40;99377.69;;;9.15;100.00
72570;BME280;60594;50.204;8.844;2023-11-21T03:42:06;99386.09;;;9.20;100.00
72570;BME280;60594;50.204;8.844;2023-11-21T03:44:33;99387.63;;;9.23;100.00
72570;BME280;60594;50.204;8.844;2023-11-21T03:46:59;99394.19;;;9.19;100.00
72570;BME280;60594;50.204;8.844;2023-11-21T03:49:26;99392.91;;;9.13;100.00
72570;BME280;60594;50.204;8.844;2023-11-21T03:51:53;99399.09;;;9.14;100.00
72570;BME280;60594;50.204;8.844;2023-11-21T03:54:19;99389.84;;;9.08;100.00
72570;BME280;60594;50.204;8.844;2023-11-21T03:56:45;99398.38;;;9.12;100.00
72570;BME280;60594;50.204;8.844;2023-11-21T03:59:12;99401.28;;;9.09;100.00
72570;BME280;60594;50.204;8.844;2023-11-21T04:01:38;99398.91;;;9.06;100.00
72570;BME280;60594;50.204;8.844;2023-11-21T04:04:05;99413.75;;;9.08;100.00
72570;BME280;60594;50.204;8.844;2023-11-21T04:06:31;99407.31;;;9.11;100.00
72570;BME280;60594;50.204;8.844;2023-11-21T04:08:59;99412.66;;;9.11;100.00
72570;BME280;60594;50.204;8.844;2023-11-21T04:11:25;99415.03;;;9.14;100.00
72570;BME280;60594;50.204;8.844;2023-11-21T04:13:51;99405.78;;;9.08;100.00
72570;BME280;60594;50.204;8.844;2023-11-21T04:16:18;99414.19;;;9.13;100.00
72570;BME280;60594;50.204;8.844;2023-11-21T04:18:44;99414.06;;;9.15;100.00
72570;BME280;60594;50.204;8.844;2023-11-21T04:21:11;99415.88;;;9.14;100.00
72570;BME280;60594;50.204;8.844;2023-11-21T04:23:37;99420.91;;;9.17;100.00
72570;BME280;60594;50.204;8.844;2023-11-21T04:26:04;99417.16;;;9.20;100.00
72570;BME280;60594;50.204;8.844;2023-11-21T04:28:30;99418.00;;;9.20;100.00
72570;BME280;60594;50.204;8.844;2023-11-21T04:30:57;99423.19;;;9.22;100.00
72570;BME280;60594;50.204;8.844;2023-11-21T04:33:23;99420.53;;;9.22;100.00
72570;BME280;60594;50.204;8.844;2023-11-21T04:35:50;99427.66;;;9.21;100.00
72570;BME280;60594;50.204;8.844;2023-11-21T04:38:16;99437.59;;;9.19;100.00
72570;BME280;60594;50.204;8.844;2023-11-21T04:40:43;99431.69;;;9.16;100.00
72570;BME280;60594;50.204;8.844;2023-11-21T04:43:09;99430.31;;;9.21;100.00
72570;BME280;60594;50.204;8.844;2023-11-21T04:45:36;99436.22;;;9.25;100.00
72570;BME280;60594;50.204;8.844;2023-11-21T04:48:02;99435.50;;;9.23;100.00
72570;BME280;60594;50.204;8.844;2023-11-21T04:50:30;99445.31;;;9.22;100.00
72570;BME280;60594;50.204;8.844;2023-11-21T04:52:56;99438.53;;;9.18;100.00
72570;BME280;60594;50.204;8.844;2023-11-21T04:55:22;99444.31;;;9.23;100.00
72570;BME280;60594;50.204;8.844;2023-11-21T04:57:49;99460.53;;;9.20;100.00
72570;BME280;60594;50.204;8.844;2023-11-21T05:00:16;99458.13;;;9.17;100.00
72570;BME280;60594;50.204;8.844;2023-11-21T05:02:42;99468.91;;;9.16;100.00
72570;BME280;60594;50.204;8.844;2023-11-21T05:05:09;99469.38;;;9.21;100.00
72570;BME280;60594;50.204;8.844;2023-11-21T05:07:36;99456.88;;;9.21;100.00
72570;BME280;60594;50.204;8.844;2023-11-21T05:10:05;99467.28;;;9.24;100.00
72570;BME280;60594;50.204;8.844;2023-11-21T05:12:34;99460.97;;;9.25;100.00
72570;BME280;60594;50.204;8.844;2023-11-21T05:15:04;99471.47;;;9.27;100.00
72570;BME280;60594;50.204;8.844;2023-11-21T05:17:33;99469.28;;;9.32;100.00
72570;BME280;60594;50.204;8.844;2023-11-21T05:20:01;99478.22;;;9.31;100.00
72570;BME280;60594;50.204;8.844;2023-11-21T05:22:34;99473.03;;;9.29;100.00
72570;BME280;60594;50.204;8.844;2023-11-21T05:25:02;99480.56;;;9.24;100.00
72570;BME280;60594;50.204;8.844;2023-11-21T05:27:31;99486.38;;;9.18;100.00
72570;BME280;60594;50.204;8.844;2023-11-21T05:29:58;99495.53;;;9.25;100.00
72570;BME280;60594;50.204;8.844;2023-11-21T05:32:25;99498.19;;;9.25;100.00
72570;BME280;60594;50.204;8.844;2023-11-21T05:34:52;99497.38;;;9.25;100.00
72570;BME280;60594;50.204;8.844;2023-11-21T05:37:18;99507.28;;;9.23;100.00
72570;BME280;60594;50.204;8.844;2023-11-21T05:39:45;99496.19;;;9.18;100.00
72570;BME280;60594;50.204;8.844;2023-11-21T05:42:11;99495.59;;;9.14;100.00
72570;BME280;60594;50.204;8.844;2023-11-21T05:44:41;99502.16;;;9.10;100.00
72570;BME280;60594;50.204;8.844;2023-11-21T05:47:07;99507.22;;;9.13;100.00
72570;BME280;60594;50.204;8.844;2023-11-21T05:49:35;99504.81;;;9.10;100.00
72570;BME280;60594;50.204;8.844;2023-11-21T05:52:02;99515.06;;;9.15;100.00
72570;BME280;60594;50.204;8.844;2023-11-21T05:54:28;99516.75;;;9.16;100.00
72570;BME280;60594;50.204;8.844;2023-11-21T05:56:55;99524.16;;;9.12;100.00
72570;BME280;60594;50.204;8.844;2023-11-21T05:59:21;99522.06;;;9.16;100.00
72570;BME280;60594;50.204;8.844;2023-11-21T06:01:48;99516.75;;;9.16;100.00
72570;BME280;60594;50.204;8.844;2023-11-21T06:04:14;99524.84;;;9.14;100.00
72570;BME280;60594;50.204;8.844;2023-11-21T06:06:41;99511.38;;;9.06;100.00
72570;BME280;60594;50.204;8.844;2023-11-21T06:09:07;99526.63;;;9.04;100.00
72570;BME280;60594;50.204;8.844;2023-11-21T06:11:35;99522.00;;;9.06;100.00
72570;BME280;60594;50.204;8.844;2023-11-21T06:14:02;99527.56;;;9.03;100.00
72570;BME280;60594;50.204;8.844;2023-11-21T06:16:28;99539.06;;;9.04;100.00
72570;BME280;60594;50.204;8.844;2023-11-21T06:18:55;99540.03;;;9.03;100.00
72570;BME280;60594;50.204;8.844;2023-11-21T06:21:21;99551.03;;;8.98;100.00
72570;BME280;60594;50.204;8.844;2023-11-21T06:23:48;99554.09;;;8.94;100.00
72570;BME280;60594;50.204;8.844;2023-11-21T06:26:14;99558.34;;;8.85;100.00
72570;BME280;60594;50.204;8.844;2023-11-21T06:28:41;99554.00;;;8.84;100.00
72570;BME280;60594;50.204;8.844;2023-11-21T06:31:07;99552.25;;;8.74;100.00
72570;BME280;60594;50.204;8.844;2023-11-21T06:33:34;99567.53;;;8.81;100.00
72570;BME280;60594;50.204;8.844;2023-11-21T06:36:00;99568.91;;;8.76;100.00
72570;BME280;60594;50.204;8.844;2023-11-21T06:38:30;99574.38;;;8.74;100.00
72570;BME280;60594;50.204;8.844;2023-11-21T06:40:58;99571.59;;;8.65;100.00
72570;BME280;60594;50.204;8.844;2023-11-21T06:43:24;99572.56;;;8.64;100.00
72570;BME280;60594;50.204;8.844;2023-11-21T06:45:51;99586.09;;;8.61;100.00
72570;BME280;60594;50.204;8.844;2023-11-21T06:48:18;99587.22;;;8.47;100.00
72570;BME280;60594;50.204;8.844;2023-11-21T06:50:44;99600.63;;;8.46;100.00
72570;BME280;60594;50.204;8.844;2023-11-21T06:53:11;99605.59;;;8.39;100.00
72570;BME280;60594;50.204;8.844;2023-11-21T06:55:37;99607.88;;;8.44;100.00
72570;BME280;60594;50.204;8.844;2023-11-21T06:58:03;99608.13;;;8.41;100.00
72570;BME280;60594;50.204;8.844;2023-11-21T07:00:31;99619.94;;;8.48;100.00
72570;BME280;60594;50.204;8.844;2023-11-21T07:02:57;99620.56;;;8.40;100.00
72570;BME280;60594;50.204;8.844;2023-11-21T07:05:24;99619.13;;;8.25;100.00
72570;BME280;60594;50.204;8.844;2023-11-21T07:07:50;99636.25;;;8.32;100.00
72570;BME280;60594;50.204;8.844;2023-11-21T07:10:17;99618.41;;;8.34;100.00
72570;BME280;60594;50.204;8.844;2023-11-21T07:12:43;99635.16;;;8.35;100.00
72570;BME280;60594;50.204;8.844;2023-11-21T07:15:10;99630.22;;;8.41;100.00
72570;BME280;60594;50.204;8.844;2023-11-21T07:17:37;99640.09;;;8.39;100.00
72570;BME280;60594;50.204;8.844;2023-11-21T07:20:03;99648.06;;;8.39;100.00
72570;BME280;60594;50.204;8.844;2023-11-21T07:22:30;99646.97;;;8.42;100.00
72570;BME280;60594;50.204;8.844;2023-11-21T07:24:57;99649.06;;;8.27;100.00
72570;BME280;60594;50.204;8.844;2023-11-21T07:27:23;99660.78;;;8.25;100.00
72570;BME280;60594;50.204;8.844;2023-11-21T07:29:49;99658.22;;;8.34;100.00
72570;BME280;60594;50.204;8.844;2023-11-21T07:32:16;99665.34;;;8.34;100.00
72570;BME280;60594;50.204;8.844;2023-11-21T07:34:42;99661.13;;;8.31;100.00
72570;BME280;60594;50.204;8.844;2023-11-21T07:37:09;99657.97;;;8.37;100.00
72570;BME280;60594;50.204;8.844;2023-11-21T07:39:35;99660.50;;;8.28;100.00
72570;BME280;60594;50.204;8.844;2023-11-21T07:42:03;99678.50;;;8.35;100.00
72570;BME280;60594;50.204;8.844;2023-11-21T07:44:30;99675.38;;;8.30;100.00
72570;BME280;60594;50.204;8.844;2023-11-21T07:46:57;99677.75;;;8.33;100.00
72570;BME280;60594;50.204;8.844;2023-11-21T07:49:24;99667.00;;;8.35;100.00
72570;BME280;60594;50.204;8.844;2023-11-21T07:51:51;99678.25;;;8.38;100.00
72570;BME280;60594;50.204;8.844;2023-11-21T07:54:18;99685.72;;;8.44;100.00
72570;BME280;60594;50.204;8.844;2023-11-21T07:56:44;99677.75;;;8.44;100.00
72570;BME280;60594;50.204;8.844;2023-11-21T07:59:11;99677.88;;;8.43;100.00
72570;BME280;60594;50.204;8.844;2023-11-21T08:01:38;99682.94;;;8.46;100.00
72570;BME280;60594;50.204;8.844;2023-11-21T08:04:06;99685.59;;;8.46;100.00
72570;BME280;60594;50.204;8.844;2023-11-21T08:06:33;99691.13;;;8.43;100.00
72570;BME280;60594;50.204;8.844;2023-11-21T08:08:59;99692.63;;;8.47;100.00
72570;BME280;60594;50.204;8.844;2023-11-21T08:11:26;99694.53;;;8.56;100.00
72570;BME280;60594;50.204;8.844;2023-11-21T08:13:55;99701.03;;;8.63;100.00
72570;BME280;60594;50.204;8.844;2023-11-21T08:16:21;99702.84;;;8.62;100.00
72570;BME280;60594;50.204;8.844;2023-11-21T08:18:50;99706.00;;;8.56;100.00
72570;BME280;60594;50.204;8.844;2023-11-21T08:21:16;99710.34;;;8.57;100.00
72570;BME280;60594;50.204;8.844;2023-11-21T08:23:43;99706.94;;;8.55;100.00
72570;BME280;60594;50.204;8.844;2023-11-21T08:26:09;99713.97;;;8.56;100.00
72570;BME280;60594;50.204;8.844;2023-11-21T08:28:35;99709.59;;;8.55;100.00
72570;BME280;60594;50.204;8.844;2023-11-21T08:31:02;99716.97;;;8.52;100.00
72570;BME280;60594;50.204;8.844;2023-11-21T08:33:29;99723.97;;;8.53;100.00
72570;BME280;60594;50.204;8.844;2023-11-21T08:35:55;99717.34;;;8.47;100.00
72570;BME280;60594;50.204;8.844;2023-11-21T08:38:22;99728.19;;;8.55;100.00
72570;BME280;60594;50.204;8.844;2023-11-21T08:40:48;99729.63;;;8.59;100.00
72570;BME280;60594;50.204;8.844;2023-11-21T08:43:15;99729.63;;;8.59;100.00
72570;BME280;60594;50.204;8.844;2023-11-21T08:45:42;99732.44;;;8.58;100.00
72570;BME280;60594;50.204;8.844;2023-11-21T08:48:09;99738.69;;;8.57;100.00
72570;BME280;60594;50.204;8.844;2023-11-21T08:50:37;99740.41;;;8.47;100.00
72570;BME280;60594;50.204;8.844;2023-11-21T08:53:04;99738.81;;;8.55;100.00
72570;BME280;60594;50.204;8.844;2023-11-21T08:55:32;99741.47;;;8.55;100.00
72570;BME280;60594;50.204;8.844;2023-11-21T08:58:03;99751.28;;;8.55;100.00
72570;BME280;60594;50.204;8.844;2023-11-21T09:00:32;99757.91;;;8.38;100.00
72570;BME280;60594;50.204;8.844;2023-11-21T09:03:01;99759.59;;;8.39;100.00
72570;BME280;60594;50.204;8.844;2023-11-21T09:05:28;99765.25;;;8.46;100.00
72570;BME280;60594;50.204;8.844;2023-11-21T09:07:54;99768.28;;;8.41;100.00
72570;BME280;60594;50.204;8.844;2023-11-21T09:10:21;99765.50;;;8.43;100.00
72570;BME280;60594;50.204;8.844;2023-11-21T09:12:47;99779.63;;;8.43;100.00
72570;BME280;60594;50.204;8.844;2023-11-21T09:15:14;99784.47;;;8.38;100.00
72570;BME280;60594;50.204;8.844;2023-11-21T09:17:41;99781.81;;;8.38;100.00
72570;BME280;60594;50.204;8.844;2023-11-21T09:20:07;99780.34;;;8.34;100.00
72570;BME280;60594;50.204;8.844;2023-11-21T09:22:36;99789.88;;;8.37;100.00
72570;BME280;60594;50.204;8.844;2023-11-21T09:25:02;99777.56;;;8.36;100.00
72570;BME280;60594;50.204;8.844;2023-11-21T09:27:31;99784.47;;;8.38;100.00
72570;BME280;60594;50.204;8.844;2023-11-21T09:29:58;99785.78;;;8.55;100.00
72570;BME280;60594;50.204;8.844;2023-11-21T09:32:24;99797.00;;;8.69;100.00
72570;BME280;60594;50.204;8.844;2023-11-21T09:34:51;99806.41;;;8.95;100.00
72570;BME280;60594;50.204;8.844;2023-11-21T09:37:17;99797.09;;;9.01;100.00
72570;BME280;60594;50.204;8.844;2023-11-21T09:39:44;99785.19;;;9.38;100.00
72570;BME280;60594;50.204;8.844;2023-11-21T09:42:13;99800.59;;;9.86;100.00
72570;BME280;60594;50.204;8.844;2023-11-21T09:44:55;99793.03;;;10.23;100.00
72570;BME280;60594;50.204;8.844;2023-11-21T09:47:25;99794.44;;;10.48;100.00
72570;BME280;60594;50.204;8.844;2023-11-21T09:49:53;99801.66;;;10.57;100.00
72570;BME280;60594;50.204;8.844;2023-11-21T09:52:27;99797.81;;;10.50;100.00
72570;BME280;60594;50.204;8.844;2023-11-21T09:54:55;99806.34;;;10.43;100.00
72570;BME280;60594;50.204;8.844;2023-11-21T09:57:25;99805.69;;;10.51;100.00
72570;BME280;60594;50.204;8.844;2023-11-21T09:59:53;99800.66;;;10.58;100.00
72570;BME280;60594;50.204;8.844;2023-11-21T10:02:26;99806.31;;;10.64;100.00
72570;BME280;60594;50.204;8.844;2023-11-21T10:04:55;99809.25;;;10.61;100.00
72570;BME280;60594;50.204;8.844;2023-11-21T10:07:23;99804.44;;;10.55;100.00
72570;BME280;60594;50.204;8.844;2023-11-21T10:09:51;99803.19;;;10.29;100.00
72570;BME280;60594;50.204;8.844;2023-11-21T10:12:17;99799.84;;;10.36;100.00
72570;BME280;60594;50.204;8.844;2023-11-21T10:14:48;99811.00;;;10.51;100.00
72570;BME280;60594;50.204;8.844;2023-11-21T10:17:15;99813.81;;;10.50;100.00
72570;BME280;60594;50.204;8.844;2023-11-21T10:19:47;99810.72;;;10.45;100.00
72570;BME280;60594;50.204;8.844;2023-11-21T10:22:14;99811.94;;;10.41;100.00
72570;BME280;60594;50.204;8.844;2023-11-21T10:24:41;99814.53;;;10.52;100.00
72570;BME280;60594;50.204;8.844;2023-11-21T10:27:09;99817.13;;;10.42;100.00
72570;BME280;60594;50.204;8.844;2023-11-21T10:29:36;99822.59;;;10.41;100.00
72570;BME280;60594;50.204;8.844;2023-11-21T10:32:02;99828.88;;;10.39;100.00
72570;BME280;60594;50.204;8.844;2023-11-21T10:34:29;99832.16;;;10.43;100.00
72570;BME280;60594;50.204;8.844;2023-11-21T10:36:56;99834.56;;;10.46;100.00
72570;BME280;60594;50.204;8.844;2023-11-21T10:39:24;99827.84;;;10.52;100.00
72570;BME280;60594;50.204;8.844;2023-11-21T10:41:56;99824.66;;;10.58;100.00
72570;BME280;60594;50.204;8.844;2023-11-21T10:44:23;99833.38;;;10.60;100.00
72570;BME280;60594;50.204;8.844;2023-11-21T10:46:51;99834.00;;;10.52;99.17
72570;BME280;60594;50.204;8.844;2023-11-21T10:49:25;99831.28;;;10.43;99.35
72570;BME280;60594;50.204;8.844;2023-11-21T10:51:54;99829.00;;;10.38;100.00
72570;BME280;60594;50.204;8.844;2023-11-21T10:54:21;99830.53;;;10.52;100.00
72570;BME280;60594;50.204;8.844;2023-11-21T10:56:58;99831.41;;;10.62;98.84
72570;BME280;60594;50.204;8.844;2023-11-21T10:59:29;99827.00;;;10.51;98.83
72570;BME280;60594;50.204;8.844;2023-11-21T11:01:58;99828.81;;;10.51;100.00
72570;BME280;60594;50.204;8.844;2023-11-21T11:04:27;99821.72;;;10.61;100.00
72570;BME280;60594;50.204;8.844;2023-11-21T11:07:03;99826.13;;;10.71;100.00
72570;BME280;60594;50.204;8.844;2023-11-21T11:09:32;99828.81;;;10.81;99.15
72570;BME280;60594;50.204;8.844;2023-11-21T11:12:02;99833.34;;;10.80;98.11
72570;BME280;60594;50.204;8.844;2023-11-21T11:14:31;99825.91;;;10.84;95.83
72570;BME280;60594;50.204;8.844;2023-11-21T11:16:58;99834.88;;;10.83;95.24
72570;BME280;60594;50.204;8.844;2023-11-21T11:19:26;99838.88;;;10.68;95.68
72570;BME280;60594;50.204;8.844;2023-11-21T11:22:23;99844.22;;;10.47;96.94
72570;BME280;60594;50.204;8.844;2023-11-21T11:25:03;99841.50;;;10.38;100.00
72570;BME280;60594;50.204;8.844;2023-11-21T11:27:55;99841.81;;;10.44;99.63
72570;BME280;60594;50.204;8.844;2023-11-21T11:30:50;99837.91;;;10.48;100.00
72570;BME280;60594;50.204;8.844;2023-11-21T11:33:21;99840.31;;;10.51;100.00
72570;BME280;60594;50.204;8.844;2023-11-21T11:36:13;99834.88;;;10.53;99.60
72570;BME280;60594;50.204;8.844;2023-11-21T11:38:45;99833.91;;;10.33;100.00
72570;BME280;60594;50.204;8.844;2023-11-21T11:41:12;99833.25;;;10.41;100.00
72570;BME280;60594;50.204;8.844;2023-11-21T11:43:39;99834.00;;;10.52;100.00
72570;BME280;60594;50.204;8.844;2023-11-21T11:46:11;99832.19;;;10.53;100.00
72570;BME280;60594;50.204;8.844;2023-11-21T11:48:41;99838.56;;;10.61;100.00
72570;BME280;60594;50.204;8.844;2023-11-21T11:51:12;99842.84;;;10.73;100.00
72570;BME280;60594;50.204;8.844;2023-11-21T11:53:41;99842.41;;;10.68;100.00
72570;BME280;60594;50.204;8.844;2023-11-21T11:56:25;99848.41;;;10.70;98.67
72570;BME280;60594;50.204;8.844;2023-11-21T11:58:53;99843.16;;;10.59;100.00
72570;BME280;60594;50.204;8.844;2023-11-21T12:01:21;99841.19;;;10.52;100.00
72570;BME280;60594;50.204;8.844;2023-11-21T12:07:01;99848.91;;;10.34;100.00
72570;BME280;60594;50.204;8.844;2023-11-21T12:09:31;99850.84;;;10.32;100.00
72570;BME280;60594;50.204;8.844;2023-11-21T12:11:58;99857.28;;;10.29;100.00
72570;BME280;60594;50.204;8.844;2023-11-21T12:14:24;99856.50;;;10.38;100.00
72570;BME280;60594;50.204;8.844;2023-11-21T12:16:51;99853.72;;;10.40;100.00
72570;BME280;60594;50.204;8.844;2023-11-21T12:19:18;99853.34;;;10.45;100.00
72570;BME280;60594;50.204;8.844;2023-11-21T12:21:47;99867.66;;;10.53;100.00
72570;BME280;60594;50.204;8.844;2023-11-21T12:24:14;99862.94;;;10.57;100.00
72570;BME280;60594;50.204;8.844;2023-11-21T12:26:43;99869.75;;;10.50;100.00
72570;BME280;60594;50.204;8.844;2023-11-21T12:29:10;99867.78;;;10.31;100.00
72570;BME280;60594;50.204;8.844;2023-11-21T12:31:37;99869.09;;;10.36;100.00
72570;BME280;60594;50.204;8.844;2023-11-21T12:34:04;99870.06;;;10.35;100.00
72570;BME280;60594;50.204;8.844;2023-11-21T12:36:32;99884.94;;;10.38;100.00
72570;BME280;60594;50.204;8.844;2023-11-21T12:39:00;99881.34;;;10.39;100.00
72570;BME280;60594;50.204;8.844;2023-11-21T12:41:29;99874.78;;;10.43;100.00
72570;BME280;60594;50.204;8.844;2023-11-21T12:43:56;99880.41;;;10.50;100.00
72570;BME280;60594;50.204;8.844;2023-11-21T12:46:24;99881.47;;;10.58;100.00
72570;BME280;60594;50.204;8.844;2023-11-21T12:48:53;99889.84;;;10.54;100.00
72570;BME280;60594;50.204;8.844;2023-11-21T12:51:21;99890.34;;;10.48;100.00
72570;BME280;60594;50.204;8.844;2023-11-21T12:53:49;99893.22;;;10.56;100.00
72570;BME280;60594;50.204;8.844;2023-11-21T12:56:16;99896.09;;;10.43;100.00
72570;BME280;60594;50.204;8.844;2023-11-21T12:58:45;99904.53;;;10.48;100.00
72570;BME280;60594;50.204;8.844;2023-11-21T13:01:13;99899.78;;;10.52;100.00
72570;BME280;60594;50.204;8.844;2023-11-21T13:03:48;99903.41;;;10.51;100.00